Jamaica, New York
Current Conditions -  °F | °C
As of 1:51 PM on Tuesday 21 Oct 2014 (Local Time) from KJFK Reporting Station
Light Rain Light Rain  
Wind Chill: 62°   Ceiling: 7000
Heat Index: 62°   Visibility: 10mi
Dew Point: 55°   Wind: 9mph
Humidity: 78%   Direction: 120°ESE
Pressure: 29.86"   Gusts: NA
Location:  40.69°N, 73.81°W
Report Text: KJFK 211751Z 12008KT 10SM -RA FEW022 SCT045CB BKN070 BKN250 17/13 A2986 RMK AO2 SLP110 CB SW MOV NE P0001 60002 T01670128 10194 20117 57014
Loading
Personal Weather Stations






























Interactive Weather Map
Tropical Storm Tracking
New forecast layout! Learn more

10-Day Weather Forecast

Advertisements
Track Severe Weather on mobile